sensor_id;sensor_type;location;lat;lon;timestamp;temperature;humidity
48686;DHT22;34485;51.536;3.816;2023-04-01T00:01:30;9.60;99.90
48686;DHT22;34485;51.536;3.816;2023-04-01T00:03:55;9.60;99.90
48686;DHT22;34485;51.536;3.816;2023-04-01T00:06:21;9.70;99.90
48686;DHT22;34485;51.536;3.816;2023-04-01T00:08:47;9.70;99.90
48686;DHT22;34485;51.536;3.816;2023-04-01T00:11:13;9.70;99.90
48686;DHT22;34485;51.536;3.816;2023-04-01T00:13:40;9.70;99.90
48686;DHT22;34485;51.536;3.816;2023-04-01T00:16:06;9.70;99.90
48686;DHT22;34485;51.536;3.816;2023-04-01T00:18:32;9.70;99.90
48686;DHT22;34485;51.536;3.816;2023-04-01T00:20:58;9.70;99.90
48686;DHT22;34485;51.536;3.816;2023-04-01T00:23:23;9.70;99.90
48686;DHT22;34485;51.536;3.816;2023-04-01T00:25:49;9.70;99.90
48686;DHT22;34485;51.536;3.816;2023-04-01T00:28:17;9.70;99.90
48686;DHT22;34485;51.536;3.816;2023-04-01T00:30:43;9.60;99.90
48686;DHT22;34485;51.536;3.816;2023-04-01T00:33:08;9.70;99.90
48686;DHT22;34485;51.536;3.816;2023-04-01T00:35:34;9.70;99.90
48686;DHT22;34485;51.536;3.816;2023-04-01T00:38:00;9.70;99.90
48686;DHT22;34485;51.536;3.816;2023-04-01T00:40:27;9.70;99.90
48686;DHT22;34485;51.536;3.816;2023-04-01T00:42:53;9.70;99.90
48686;DHT22;34485;51.536;3.816;2023-04-01T00:45:40;9.70;99.90
48686;DHT22;34485;51.536;3.816;2023-04-01T00:48:10;9.70;99.90
48686;DHT22;34485;51.536;3.816;2023-04-01T00:50:38;9.70;99.90
48686;DHT22;34485;51.536;3.816;2023-04-01T00:53:05;9.70;99.90
48686;DHT22;34485;51.536;3.816;2023-04-01T00:55:34;9.70;99.90
48686;DHT22;34485;51.536;3.816;2023-04-01T00:58:03;9.60;99.90
48686;DHT22;34485;51.536;3.816;2023-04-01T01:00:30;9.60;99.90
48686;DHT22;34485;51.536;3.816;2023-04-01T01:02:56;9.60;99.90
48686;DHT22;34485;51.536;3.816;2023-04-01T01:05:31;9.60;99.90
48686;DHT22;34485;51.536;3.816;2023-04-01T01:08:29;9.60;99.90
48686;DHT22;34485;51.536;3.816;2023-04-01T01:10:56;9.50;99.90
48686;DHT22;34485;51.536;3.816;2023-04-01T01:13:27;9.50;99.90
48686;DHT22;34485;51.536;3.816;2023-04-01T01:16:10;9.50;99.90
48686;DHT22;34485;51.536;3.816;2023-04-01T01:18:44;9.50;99.90
48686;DHT22;34485;51.536;3.816;2023-04-01T01:21:32;9.50;99.90
48686;DHT22;34485;51.536;3.816;2023-04-01T01:35:31;9.40;99.90
48686;DHT22;34485;51.536;3.816;2023-04-01T01:38:04;9.40;99.90
48686;DHT22;34485;51.536;3.816;2023-04-01T01:40:32;9.40;99.90
48686;DHT22;34485;51.536;3.816;2023-04-01T01:43:02;9.40;99.90
48686;DHT22;34485;51.536;3.816;2023-04-01T01:45:33;9.40;99.90
48686;DHT22;34485;51.536;3.816;2023-04-01T01:48:00;9.40;99.90
48686;DHT22;34485;51.536;3.816;2023-04-01T01:50:27;9.30;99.90
48686;DHT22;34485;51.536;3.816;2023-04-01T01:53:07;9.40;99.90
48686;DHT22;34485;51.536;3.816;2023-04-01T01:55:40;9.40;99.90
48686;DHT22;34485;51.536;3.816;2023-04-01T02:01:15;9.30;99.90
48686;DHT22;34485;51.536;3.816;2023-04-01T02:03:42;9.30;99.90
48686;DHT22;34485;51.536;3.816;2023-04-01T02:06:11;9.30;99.90
48686;DHT22;34485;51.536;3.816;2023-04-01T02:08:51;9.30;99.90
48686;DHT22;34485;51.536;3.816;2023-04-01T02:11:20;9.30;99.90
48686;DHT22;34485;51.536;3.816;2023-04-01T02:14:13;9.30;99.90
48686;DHT22;34485;51.536;3.816;2023-04-01T02:16:55;9.30;99.90
48686;DHT22;34485;51.536;3.816;2023-04-01T02:19:27;9.30;99.90
48686;DHT22;34485;51.536;3.816;2023-04-01T02:21:57;9.30;99.90
48686;DHT22;34485;51.536;3.816;2023-04-01T02:24:26;9.30;99.90
48686;DHT22;34485;51.536;3.816;2023-04-01T02:26:53;9.30;99.90
48686;DHT22;34485;51.536;3.816;2023-04-01T02:29:21;9.30;99.90
48686;DHT22;34485;51.536;3.816;2023-04-01T02:31:47;9.30;99.90
48686;DHT22;34485;51.536;3.816;2023-04-01T02:34:14;9.30;99.90
48686;DHT22;34485;51.536;3.816;2023-04-01T02:36:40;9.30;99.90
48686;DHT22;34485;51.536;3.816;2023-04-01T02:39:07;9.30;99.90
48686;DHT22;34485;51.536;3.816;2023-04-01T02:41:42;9.30;99.90
48686;DHT22;34485;51.536;3.816;2023-04-01T02:44:10;9.30;99.90
48686;DHT22;34485;51.536;3.816;2023-04-01T02:46:36;9.30;99.90
48686;DHT22;34485;51.536;3.816;2023-04-01T02:49:02;9.30;99.90
48686;DHT22;34485;51.536;3.816;2023-04-01T02:51:28;9.20;99.90
48686;DHT22;34485;51.536;3.816;2023-04-01T02:53:54;9.20;99.90
48686;DHT22;34485;51.536;3.816;2023-04-01T02:56:20;9.20;99.90
48686;DHT22;34485;51.536;3.816;2023-04-01T02:58:46;9.20;99.90
48686;DHT22;34485;51.536;3.816;2023-04-01T03:01:12;9.20;99.90
48686;DHT22;34485;51.536;3.816;2023-04-01T03:03:39;9.20;99.90
48686;DHT22;34485;51.536;3.816;2023-04-01T03:06:09;9.20;99.90
48686;DHT22;34485;51.536;3.816;2023-04-01T03:08:35;9.20;99.90
48686;DHT22;34485;51.536;3.816;2023-04-01T03:11:01;9.20;99.90
48686;DHT22;34485;51.536;3.816;2023-04-01T03:13:27;9.20;99.90
48686;DHT22;34485;51.536;3.816;2023-04-01T03:15:52;9.20;99.90
48686;DHT22;34485;51.536;3.816;2023-04-01T03:18:18;9.20;99.90
48686;DHT22;34485;51.536;3.816;2023-04-01T03:20:44;9.20;99.90
48686;DHT22;34485;51.536;3.816;2023-04-01T03:23:10;9.10;99.90
48686;DHT22;34485;51.536;3.816;2023-04-01T03:25:36;9.20;99.90
48686;DHT22;34485;51.536;3.816;2023-04-01T03:28:02;9.10;99.90
48686;DHT22;34485;51.536;3.816;2023-04-01T03:30:28;9.10;99.90
48686;DHT22;34485;51.536;3.816;2023-04-01T03:32:55;9.10;99.90
48686;DHT22;34485;51.536;3.816;2023-04-01T03:35:21;9.10;99.90
48686;DHT22;34485;51.536;3.816;2023-04-01T03:37:47;9.10;99.90
48686;DHT22;34485;51.536;3.816;2023-04-01T03:40:12;9.10;99.90
48686;DHT22;34485;51.536;3.816;2023-04-01T03:42:38;9.10;99.90
48686;DHT22;34485;51.536;3.816;2023-04-01T03:45:05;9.10;99.90
48686;DHT22;34485;51.536;3.816;2023-04-01T03:47:31;9.10;99.90
48686;DHT22;34485;51.536;3.816;2023-04-01T03:49:56;9.10;99.90
48686;DHT22;34485;51.536;3.816;2023-04-01T03:52:22;9.10;99.90
48686;DHT22;34485;51.536;3.816;2023-04-01T03:54:47;9.10;99.90
48686;DHT22;34485;51.536;3.816;2023-04-01T03:57:13;9.10;99.90
48686;DHT22;34485;51.536;3.816;2023-04-01T03:59:39;9.10;99.90
48686;DHT22;34485;51.536;3.816;2023-04-01T04:02:04;9.10;99.90
48686;DHT22;34485;51.536;3.816;2023-04-01T04:04:30;9.10;99.90
48686;DHT22;34485;51.536;3.816;2023-04-01T04:06:57;9.10;99.90
48686;DHT22;34485;51.536;3.816;2023-04-01T04:09:23;9.10;99.90
48686;DHT22;34485;51.536;3.816;2023-04-01T04:11:49;9.00;99.90
48686;DHT22;34485;51.536;3.816;2023-04-01T04:14:15;9.10;99.90
48686;DHT22;34485;51.536;3.816;2023-04-01T04:16:40;9.00;99.90
48686;DHT22;34485;51.536;3.816;2023-04-01T04:19:06;9.00;99.90
48686;DHT22;34485;51.536;3.816;2023-04-01T04:21:32;9.00;99.90
48686;DHT22;34485;51.536;3.816;2023-04-01T04:24:01;9.00;99.90
48686;DHT22;34485;51.536;3.816;2023-04-01T04:26:27;9.00;99.90
48686;DHT22;34485;51.536;3.816;2023-04-01T04:28:54;9.00;99.90
48686;DHT22;34485;51.536;3.816;2023-04-01T04:31:22;9.00;99.90
48686;DHT22;34485;51.536;3.816;2023-04-01T04:33:49;9.00;99.90
48686;DHT22;34485;51.536;3.816;2023-04-01T04:36:15;9.00;99.90
48686;DHT22;34485;51.536;3.816;2023-04-01T04:38:41;9.00;99.90
48686;DHT22;34485;51.536;3.816;2023-04-01T04:41:10;9.00;99.90
48686;DHT22;34485;51.536;3.816;2023-04-01T04:43:37;9.00;99.90
48686;DHT22;34485;51.536;3.816;2023-04-01T04:46:09;9.00;99.90
48686;DHT22;34485;51.536;3.816;2023-04-01T04:48:36;9.00;99.90
48686;DHT22;34485;51.536;3.816;2023-04-01T04:51:02;9.00;99.90
48686;DHT22;34485;51.536;3.816;2023-04-01T04:53:27;9.00;99.90
48686;DHT22;34485;51.536;3.816;2023-04-01T04:55:53;9.00;99.90
48686;DHT22;34485;51.536;3.816;2023-04-01T04:58:19;9.00;99.90
48686;DHT22;34485;51.536;3.816;2023-04-01T05:00:45;9.00;99.90
48686;DHT22;34485;51.536;3.816;2023-04-01T05:03:11;9.00;99.90
48686;DHT22;34485;51.536;3.816;2023-04-01T05:05:37;9.00;99.90
48686;DHT22;34485;51.536;3.816;2023-04-01T05:08:03;9.00;99.90
48686;DHT22;34485;51.536;3.816;2023-04-01T05:10:29;9.00;99.90
48686;DHT22;34485;51.536;3.816;2023-04-01T05:12:56;9.00;99.90
48686;DHT22;34485;51.536;3.816;2023-04-01T05:15:21;9.00;99.90
48686;DHT22;34485;51.536;3.816;2023-04-01T05:17:47;9.00;99.90
48686;DHT22;34485;51.536;3.816;2023-04-01T05:20:13;9.00;99.90
48686;DHT22;34485;51.536;3.816;2023-04-01T05:22:40;9.00;99.90
48686;DHT22;34485;51.536;3.816;2023-04-01T05:25:05;9.00;99.90
48686;DHT22;34485;51.536;3.816;2023-04-01T05:27:31;9.00;99.90
48686;DHT22;34485;51.536;3.816;2023-04-01T05:29:57;9.00;99.90
48686;DHT22;34485;51.536;3.816;2023-04-01T05:32:23;9.00;99.90
48686;DHT22;34485;51.536;3.816;2023-04-01T05:34:53;9.00;99.90
48686;DHT22;34485;51.536;3.816;2023-04-01T05:37:19;9.00;99.90
48686;DHT22;34485;51.536;3.816;2023-04-01T05:39:45;9.00;99.90
48686;DHT22;34485;51.536;3.816;2023-04-01T05:42:10;9.00;99.90
48686;DHT22;34485;51.536;3.816;2023-04-01T05:44:36;9.00;99.90
48686;DHT22;34485;51.536;3.816;2023-04-01T05:47:03;9.00;99.90
48686;DHT22;34485;51.536;3.816;2023-04-01T05:49:29;9.10;99.90
48686;DHT22;34485;51.536;3.816;2023-04-01T05:51:55;9.10;99.90
48686;DHT22;34485;51.536;3.816;2023-04-01T05:54:21;9.10;99.90
48686;DHT22;34485;51.536;3.816;2023-04-01T05:56:46;9.10;99.90
48686;DHT22;34485;51.536;3.816;2023-04-01T05:59:12;9.10;99.90
48686;DHT22;34485;51.536;3.816;2023-04-01T06:01:38;9.10;99.90
48686;DHT22;34485;51.536;3.816;2023-04-01T06:04:04;9.10;99.90
48686;DHT22;34485;51.536;3.816;2023-04-01T06:06:31;9.10;99.90
48686;DHT22;34485;51.536;3.816;2023-04-01T06:09:07;9.10;99.90
48686;DHT22;34485;51.536;3.816;2023-04-01T06:14:27;9.20;99.90
48686;DHT22;34485;51.536;3.816;2023-04-01T06:19:28;9.20;99.90
48686;DHT22;34485;51.536;3.816;2023-04-01T06:22:08;9.20;99.90
48686;DHT22;34485;51.536;3.816;2023-04-01T06:25:06;9.20;99.90
48686;DHT22;34485;51.536;3.816;2023-04-01T06:27:57;9.30;99.90
48686;DHT22;34485;51.536;3.816;2023-04-01T06:33:11;9.30;99.90
48686;DHT22;34485;51.536;3.816;2023-04-01T06:55:26;9.30;99.90
48686;DHT22;34485;51.536;3.816;2023-04-01T06:57:55;9.30;99.90
48686;DHT22;34485;51.536;3.816;2023-04-01T07:00:43;9.40;99.90
48686;DHT22;34485;51.536;3.816;2023-04-01T07:05:42;9.30;99.90
48686;DHT22;34485;51.536;3.816;2023-04-01T07:08:19;9.30;99.90
48686;DHT22;34485;51.536;3.816;2023-04-01T07:11:02;9.40;99.90
48686;DHT22;34485;51.536;3.816;2023-04-01T07:13:34;9.40;99.90
48686;DHT22;34485;51.536;3.816;2023-04-01T07:16:13;9.40;99.90
48686;DHT22;34485;51.536;3.816;2023-04-01T07:21:51;9.40;99.90
48686;DHT22;34485;51.536;3.816;2023-04-01T07:24:29;9.40;99.90
48686;DHT22;34485;51.536;3.816;2023-04-01T07:26:57;9.40;99.90
48686;DHT22;34485;51.536;3.816;2023-04-01T07:29:23;9.40;99.90
48686;DHT22;34485;51.536;3.816;2023-04-01T07:32:11;9.40;99.90
48686;DHT22;34485;51.536;3.816;2023-04-01T07:40:32;9.40;99.90
48686;DHT22;34485;51.536;3.816;2023-04-01T07:49:10;9.30;99.90
48686;DHT22;34485;51.536;3.816;2023-04-01T07:54:50;9.30;99.90
48686;DHT22;34485;51.536;3.816;2023-04-01T07:57:42;9.30;99.90
48686;DHT22;34485;51.536;3.816;2023-04-01T08:00:20;9.30;99.90
48686;DHT22;34485;51.536;3.816;2023-04-01T08:05:29;9.40;99.90
48686;DHT22;34485;51.536;3.816;2023-04-01T08:13:45;9.40;99.90
48686;DHT22;34485;51.536;3.816;2023-04-01T08:16:32;9.40;99.90
48686;DHT22;34485;51.536;3.816;2023-04-01T08:19:15;9.40;99.90
48686;DHT22;34485;51.536;3.816;2023-04-01T08:21:47;9.40;99.90
48686;DHT22;34485;51.536;3.816;2023-04-01T08:24:48;9.50;99.90
48686;DHT22;34485;51.536;3.816;2023-04-01T08:30:24;9.50;99.90
48686;DHT22;34485;51.536;3.816;2023-04-01T08:32:59;9.50;99.90
48686;DHT22;34485;51.536;3.816;2023-04-01T08:35:38;9.50;99.90
48686;DHT22;34485;51.536;3.816;2023-04-01T08:38:12;9.50;99.90
48686;DHT22;34485;51.536;3.816;2023-04-01T08:40:56;9.50;99.90
48686;DHT22;34485;51.536;3.816;2023-04-01T08:46:25;9.50;99.90
48686;DHT22;34485;51.536;3.816;2023-04-01T08:49:29;9.70;99.90
48686;DHT22;34485;51.536;3.816;2023-04-01T08:55:51;9.60;99.90
48686;DHT22;34485;51.536;3.816;2023-04-01T09:00:43;9.70;99.90
48686;DHT22;34485;51.536;3.816;2023-04-01T09:20:19;10.10;99.90
48686;DHT22;34485;51.536;3.816;2023-04-01T09:25:44;10.10;99.90
48686;DHT22;34485;51.536;3.816;2023-04-01T09:36:45;10.20;99.90
48686;DHT22;34485;51.536;3.816;2023-04-01T09:39:38;10.20;99.90
48686;DHT22;34485;51.536;3.816;2023-04-01T09:45:19;10.10;99.90
48686;DHT22;34485;51.536;3.816;2023-04-01T09:48:38;10.20;99.90
48686;DHT22;34485;51.536;3.816;2023-04-01T09:53:46;10.10;99.90
48686;DHT22;34485;51.536;3.816;2023-04-01T09:56:57;10.30;99.90
48686;DHT22;34485;51.536;3.816;2023-04-01T10:14:06;10.50;99.90
48686;DHT22;34485;51.536;3.816;2023-04-01T10:22:17;10.70;99.90
48686;DHT22;34485;51.536;3.816;2023-04-01T10:25:15;10.80;99.90
48686;DHT22;34485;51.536;3.816;2023-04-01T10:33:32;10.70;99.90
48686;DHT22;34485;51.536;3.816;2023-04-01T10:37:03;10.60;99.90
48686;DHT22;34485;51.536;3.816;2023-04-01T10:53:44;10.70;99.90
48686;DHT22;34485;51.536;3.816;2023-04-01T10:56:32;10.70;99.90
48686;DHT22;34485;51.536;3.816;2023-04-01T11:04:30;10.90;99.90
48686;DHT22;34485;51.536;3.816;2023-04-01T11:18:20;10.90;99.90
48686;DHT22;34485;51.536;3.816;2023-04-01T11:26:50;10.80;99.90
48686;DHT22;34485;51.536;3.816;2023-04-01T11:32:24;10.90;99.90
48686;DHT22;34485;51.536;3.816;2023-04-01T11:34:56;11.00;99.90
48686;DHT22;34485;51.536;3.816;2023-04-01T11:40:36;11.00;99.90
48686;DHT22;34485;51.536;3.816;2023-04-01T11:46:11;10.80;99.90
48686;DHT22;34485;51.536;3.816;2023-04-01T12:06:28;10.70;99.90
48686;DHT22;34485;51.536;3.816;2023-04-01T12:09:07;10.70;99.90
48686;DHT22;34485;51.536;3.816;2023-04-01T12:17:46;10.80;99.90
48686;DHT22;34485;51.536;3.816;2023-04-01T12:26:10;10.80;99.90
48686;DHT22;34485;51.536;3.816;2023-04-01T12:36:49;10.90;99.90
48686;DHT22;34485;51.536;3.816;2023-04-01T12:39:42;11.00;99.90
48686;DHT22;34485;51.536;3.816;2023-04-01T12:45:19;10.90;99.90
48686;DHT22;34485;51.536;3.816;2023-04-01T12:51:05;11.40;99.90
48686;DHT22;34485;51.536;3.816;2023-04-01T13:07:31;10.90;99.90
48686;DHT22;34485;51.536;3.816;2023-04-01T13:15:44;10.70;99.90
48686;DHT22;34485;51.536;3.816;2023-04-01T13:21:19;10.60;99.90
48686;DHT22;34485;51.536;3.816;2023-04-01T13:26:26;10.60;99.90
48686;DHT22;34485;51.536;3.816;2023-04-01T13:29:01;10.60;99.90
48686;DHT22;34485;51.536;3.816;2023-04-01T13:31:50;10.60;99.90
48686;DHT22;34485;51.536;3.816;2023-04-01T13:37:24;10.40;99.90
48686;DHT22;34485;51.536;3.816;2023-04-01T13:40:23;10.40;99.90
48686;DHT22;34485;51.536;3.816;2023-04-01T13:42:57;10.30;99.90
48686;DHT22;34485;51.536;3.816;2023-04-01T13:48:07;10.20;99.90
48686;DHT22;34485;51.536;3.816;2023-04-01T13:54:00;10.20;99.90
48686;DHT22;34485;51.536;3.816;2023-04-01T14:02:21;10.20;99.90
48686;DHT22;34485;51.536;3.816;2023-04-01T14:11:09;10.20;99.90
48686;DHT22;34485;51.536;3.816;2023-04-01T14:13:52;10.20;99.90
48686;DHT22;34485;51.536;3.816;2023-04-01T14:19:39;10.40;99.90
48686;DHT22;34485;51.536;3.816;2023-04-01T14:31:16;10.50;99.90
48686;DHT22;34485;51.536;3.816;2023-04-01T14:50:48;10.40;99.90
48686;DHT22;34485;51.536;3.816;2023-04-01T14:55:58;10.40;99.90
48686;DHT22;34485;51.536;3.816;2023-04-01T14:58:49;10.40;99.90
48686;DHT22;34485;51.536;3.816;2023-04-01T15:13:10;10.30;99.90
48686;DHT22;34485;51.536;3.816;2023-04-01T15:16:05;10.30;99.90
48686;DHT22;34485;51.536;3.816;2023-04-01T15:19:05;10.30;99.90
48686;DHT22;34485;51.536;3.816;2023-04-01T15:21:44;10.40;99.90
48686;DHT22;34485;51.536;3.816;2023-04-01T15:24:22;10.50;99.90
48686;DHT22;34485;51.536;3.816;2023-04-01T15:35:31;10.70;99.90
48686;DHT22;34485;51.536;3.816;2023-04-01T15:40:53;10.40;99.90
48686;DHT22;34485;51.536;3.816;2023-04-01T15:51:19;10.10;99.90
48686;DHT22;34485;51.536;3.816;2023-04-01T15:59:47;9.90;99.90
48686;DHT22;34485;51.536;3.816;2023-04-01T16:02:49;9.90;99.90
48686;DHT22;34485;51.536;3.816;2023-04-01T16:10:52;9.70;99.90
48686;DHT22;34485;51.536;3.816;2023-04-01T16:25:14;9.50;99.90
48686;DHT22;34485;51.536;3.816;2023-04-01T16:31:50;9.40;99.90
48686;DHT22;34485;51.536;3.816;2023-04-01T16:33:51;9.30;99.90
48686;DHT22;34485;51.536;3.816;2023-04-01T16:41:38;9.20;99.90
48686;DHT22;34485;51.536;3.816;2023-04-01T16:44:18;9.30;99.90
48686;DHT22;34485;51.536;3.816;2023-04-01T16:46:47;9.20;99.90
48686;DHT22;34485;51.536;3.816;2023-04-01T16:49:37;9.30;99.90
48686;DHT22;34485;51.536;3.816;2023-04-01T17:04:47;9.20;99.90
48686;DHT22;34485;51.536;3.816;2023-04-01T17:15:41;9.20;99.90
48686;DHT22;34485;51.536;3.816;2023-04-01T17:21:13;9.20;99.90
48686;DHT22;34485;51.536;3.816;2023-04-01T17:23:53;9.20;99.90
48686;DHT22;34485;51.536;3.816;2023-04-01T17:26:45;9.30;99.90
48686;DHT22;34485;51.536;3.816;2023-04-01T17:29:45;9.20;99.90
48686;DHT22;34485;51.536;3.816;2023-04-01T17:38:37;9.20;99.90
48686;DHT22;34485;51.536;3.816;2023-04-01T17:41:31;9.20;99.90
48686;DHT22;34485;51.536;3.816;2023-04-01T17:47:23;9.20;99.90
48686;DHT22;34485;51.536;3.816;2023-04-01T17:52:28;9.20;99.90
48686;DHT22;34485;51.536;3.816;2023-04-01T17:55:15;9.20;99.90
48686;DHT22;34485;51.536;3.816;2023-04-01T17:57:54;9.20;99.90
48686;DHT22;34485;51.536;3.816;2023-04-01T18:09:15;9.20;99.90
48686;DHT22;34485;51.536;3.816;2023-04-01T18:22:23;9.20;99.90
48686;DHT22;34485;51.536;3.816;2023-04-01T18:27:38;9.10;99.90
48686;DHT22;34485;51.536;3.816;2023-04-01T18:30:18;9.10;99.90
48686;DHT22;34485;51.536;3.816;2023-04-01T18:33:21;9.10;99.90
48686;DHT22;34485;51.536;3.816;2023-04-01T18:35:58;9.20;99.90
48686;DHT22;34485;51.536;3.816;2023-04-01T18:38:40;9.10;99.90
48686;DHT22;34485;51.536;3.816;2023-04-01T18:43:56;9.10;99.90
48686;DHT22;34485;51.536;3.816;2023-04-01T18:49:05;9.20;99.90
48686;DHT22;34485;51.536;3.816;2023-04-01T18:51:47;9.20;99.90
48686;DHT22;34485;51.536;3.816;2023-04-01T18:54:31;9.20;99.90
48686;DHT22;34485;51.536;3.816;2023-04-01T18:57:04;9.20;99.90
48686;DHT22;34485;51.536;3.816;2023-04-01T18:59:39;9.20;99.90
48686;DHT22;34485;51.536;3.816;2023-04-01T19:05:13;9.20;99.90
48686;DHT22;34485;51.536;3.816;2023-04-01T19:10:31;9.10;99.90
48686;DHT22;34485;51.536;3.816;2023-04-01T19:13:08;9.20;99.90
48686;DHT22;34485;51.536;3.816;2023-04-01T19:21:42;9.10;99.90
48686;DHT22;34485;51.536;3.816;2023-04-01T19:37:39;9.10;99.90
48686;DHT22;34485;51.536;3.816;2023-04-01T19:45:55;9.10;99.90
48686;DHT22;34485;51.536;3.816;2023-04-01T19:51:22;9.20;99.90
48686;DHT22;34485;51.536;3.816;2023-04-01T19:59:30;9.20;99.90
48686;DHT22;34485;51.536;3.816;2023-04-01T20:04:33;9.20;99.90
48686;DHT22;34485;51.536;3.816;2023-04-01T20:07:13;9.20;99.90
48686;DHT22;34485;51.536;3.816;2023-04-01T20:14:56;9.20;99.90
48686;DHT22;34485;51.536;3.816;2023-04-01T20:28:05;9.10;99.90
48686;DHT22;34485;51.536;3.816;2023-04-01T20:30:57;9.10;99.90
48686;DHT22;34485;51.536;3.816;2023-04-01T20:33:58;9.10;99.90
48686;DHT22;34485;51.536;3.816;2023-04-01T20:45:08;9.10;99.90
48686;DHT22;34485;51.536;3.816;2023-04-01T21:00:52;9.10;99.90
48686;DHT22;34485;51.536;3.816;2023-04-01T21:09:25;9.10;99.90
48686;DHT22;34485;51.536;3.816;2023-04-01T21:21:51;8.90;99.90
48686;DHT22;34485;51.536;3.816;2023-04-01T21:24:30;8.90;99.90
48686;DHT22;34485;51.536;3.816;2023-04-01T21:35:08;8.90;99.90
48686;DHT22;34485;51.536;3.816;2023-04-01T21:37:53;8.80;99.90
48686;DHT22;34485;51.536;3.816;2023-04-01T21:40:48;8.80;99.90
48686;DHT22;34485;51.536;3.816;2023-04-01T21:43:32;8.80;99.90
48686;DHT22;34485;51.536;3.816;2023-04-01T22:00:04;8.80;99.90
48686;DHT22;34485;51.536;3.816;2023-04-01T22:05:51;8.70;99.90
48686;DHT22;34485;51.536;3.816;2023-04-01T22:10:49;8.70;99.90
48686;DHT22;34485;51.536;3.816;2023-04-01T22:14:07;8.70;99.90
48686;DHT22;34485;51.536;3.816;2023-04-01T22:16:26;8.70;99.90
48686;DHT22;34485;51.536;3.816;2023-04-01T22:24:51;8.70;99.90
48686;DHT22;34485;51.536;3.816;2023-04-01T22:35:54;8.70;99.90
48686;DHT22;34485;51.536;3.816;2023-04-01T22:40:58;8.70;99.90
48686;DHT22;34485;51.536;3.816;2023-04-01T22:43:36;8.70;99.90
48686;DHT22;34485;51.536;3.816;2023-04-01T22:46:07;8.70;99.90
48686;DHT22;34485;51.536;3.816;2023-04-01T22:48:46;8.70;99.90
48686;DHT22;34485;51.536;3.816;2023-04-01T22:51:18;8.70;99.90
48686;DHT22;34485;51.536;3.816;2023-04-01T22:53:48;8.60;99.90
48686;DHT22;34485;51.536;3.816;2023-04-01T22:56:37;8.70;99.90
48686;DHT22;34485;51.536;3.816;2023-04-01T23:02:35;8.60;99.90
48686;DHT22;34485;51.536;3.816;2023-04-01T23:05:05;8.60;99.90
48686;DHT22;34485;51.536;3.816;2023-04-01T23:07:51;8.60;99.90
48686;DHT22;34485;51.536;3.816;2023-04-01T23:10:26;8.60;99.90
48686;DHT22;34485;51.536;3.816;2023-04-01T23:12:56;8.60;99.90
48686;DHT22;34485;51.536;3.816;2023-04-01T23:15:23;8.60;99.90
48686;DHT22;34485;51.536;3.816;2023-04-01T23:20:54;8.60;99.90
48686;DHT22;34485;51.536;3.816;2023-04-01T23:26:21;8.50;99.90
48686;DHT22;34485;51.536;3.816;2023-04-01T23:28:53;8.50;99.90
48686;DHT22;34485;51.536;3.816;2023-04-01T23:31:56;8.50;99.90
48686;DHT22;34485;51.536;3.816;2023-04-01T23:34:25;8.50;99.90
48686;DHT22;34485;51.536;3.816;2023-04-01T23:36:56;8.50;99.90
48686;DHT22;34485;51.536;3.816;2023-04-01T23:39:40;8.40;99.90
48686;DHT22;34485;51.536;3.816;2023-04-01T23:42:13;8.50;99.90
48686;DHT22;34485;51.536;3.816;2023-04-01T23:44:40;8.40;99.90
48686;DHT22;34485;51.536;3.816;2023-04-01T23:47:08;8.40;99.90
48686;DHT22;34485;51.536;3.816;2023-04-01T23:49:40;8.40;99.90
48686;DHT22;34485;51.536;3.816;2023-04-01T23:54:56;8.40;99.90
48686;DHT22;34485;51.536;3.816;2023-04-01T23:57:30;8.40;99.90
